Time;durP1;ratioP1;P1;durP2;ratioP2;P2;SDS_P1;SDS_P2;PMS_P1;PMS_P2;Temp;Humidity;BMP_temperature;BMP_pressure;BME280_temperature;BME280_humidity;BME280_pressure;Samples;Min_cycle;Max_cycle;Signal;HPM_P1;HPM_P2
2021/09/01 00:02:16;;;;;;;9.60;7.60;;;;;;;14.32;79.89;100545.83;118328;1192;21747;-81
2021/09/01 00:04:45;;;;;;;8.40;7.50;;;;;;;14.33;79.87;100545.96;118290;1192;22291;-81
2021/09/01 00:07:14;;;;;;;8.90;7.90;;;;;;;14.36;79.83;100548.61;118075;1195;22340;-80
2021/09/01 00:09:44;;;;;;;9.90;7.90;;;;;;;14.40;79.75;100554.42;118128;1195;21808;-81
2021/09/01 00:12:13;;;;;;;8.70;7.60;;;;;;;14.38;79.72;100554.13;118176;1198;21833;-80
2021/09/01 00:14:41;;;;;;;9.20;7.80;;;;;;;14.37;79.59;100551.50;118186;1198;21852;-80
2021/09/01 00:17:11;;;;;;;8.40;7.50;;;;;;;14.39;79.63;100552.95;118116;1195;21737;-82
2021/09/01 00:19:40;;;;;;;9.30;7.70;;;;;;;14.38;79.54;100556.42;118133;1195;22112;-81
2021/09/01 00:22:09;;;;;;;11.20;7.20;;;;;;;14.36;79.41;100555.90;118150;1193;22482;-81
2021/09/01 00:24:38;;;;;;;9.20;7.60;;;;;;;14.39;79.39;100565.02;118214;1195;22232;-81
2021/09/01 00:27:07;;;;;;;11.30;7.00;;;;;;;14.37;79.38;100562.18;118324;1192;21795;-82
2021/09/01 00:29:36;;;;;;;9.80;7.20;;;;;;;14.38;79.31;100561.04;118276;1191;21735;-80
2021/09/01 00:32:05;;;;;;;9.40;8.20;;;;;;;14.41;79.21;100567.38;118209;1189;21780;-81
2021/09/01 00:34:35;;;;;;;10.00;8.00;;;;;;;14.43;79.24;100570.66;118257;1195;21805;-81
2021/09/01 00:37:04;;;;;;;11.30;7.60;;;;;;;14.41;79.13;100570.42;118331;1191;21849;-80
2021/09/01 00:39:33;;;;;;;8.50;7.40;;;;;;;14.41;78.94;100575.94;118381;1195;21769;-81
2021/09/01 00:42:04;;;;;;;9.70;7.50;;;;;;;14.39;78.89;100581.74;118204;1195;21689;-80
2021/09/01 00:44:35;;;;;;;11.40;7.40;;;;;;;14.36;78.82;100578.99;118332;1192;22247;-80
2021/09/01 00:47:05;;;;;;;10.50;7.80;;;;;;;14.34;78.83;100579.23;118176;1192;22239;-81
2021/09/01 00:49:35;;;;;;;10.50;7.30;;;;;;;14.32;78.76;100580.52;118226;1197;21761;-81
2021/09/01 00:52:04;;;;;;;9.10;7.70;;;;;;;14.29;78.74;100583.40;117751;1197;21827;-80
2021/09/01 00:54:33;;;;;;;7.50;6.80;;;;;;;14.28;78.75;100583.24;117891;1198;21876;-80
2021/09/01 00:57:05;;;;;;;9.90;7.70;;;;;;;14.27;78.76;100586.10;117425;1197;21809;-80
2021/09/01 00:59:39;;;;;;;10.50;8.00;;;;;;;14.28;78.69;100591.13;117895;1198;21841;-80
2021/09/01 01:02:08;;;;;;;10.10;7.20;;;;;;;14.25;78.70;100594.61;117373;1195;21823;-79
2021/09/01 01:04:39;;;;;;;11.00;8.50;;;;;;;14.24;78.76;100593.77;117542;1198;21835;-80
2021/09/01 01:07:11;;;;;;;8.10;7.30;;;;;;;14.26;78.72;100599.16;118216;1197;21811;-79
2021/09/01 01:09:41;;;;;;;12.70;8.10;;;;;;;14.24;78.73;100599.35;117911;1198;21866;-80
2021/09/01 01:12:20;;;;;;;10.10;7.60;;;;;;;14.24;78.69;100598.81;117980;1198;21840;-80
2021/09/01 01:14:52;;;;;;;12.60;7.90;;;;;;;14.23;78.59;100599.20;118136;1198;21811;-80
2021/09/01 01:17:23;;;;;;;9.10;7.10;;;;;;;14.21;78.66;100600.82;117578;1198;21845;-80
2021/09/01 01:19:53;;;;;;;11.50;7.70;;;;;;;14.20;78.61;100602.72;117488;1196;21765;-80
2021/09/01 01:22:26;;;;;;;9.60;7.40;;;;;;;14.20;78.68;100597.89;117541;1195;21870;-81
2021/09/01 01:25:06;;;;;;;9.70;7.90;;;;;;;14.21;78.67;100600.65;117918;1200;21862;-80
2021/09/01 01:27:37;;;;;;;8.20;6.70;;;;;;;14.22;78.68;100597.84;117975;1195;21837;-81
2021/09/01 01:30:10;;;;;;;9.20;7.80;;;;;;;14.25;78.67;100601.48;118211;1196;21831;-81
2021/09/01 01:32:43;;;;;;;9.40;7.80;;;;;;;14.27;78.65;100605.10;118177;1194;21813;-80
2021/09/01 01:35:27;;;;;;;10.10;7.00;;;;;;;14.26;78.65;100610.34;118081;1195;21802;-80
2021/09/01 01:37:58;;;;;;;14.60;7.80;;;;;;;14.25;78.53;100615.91;118432;1193;21771;-80
2021/09/01 01:40:27;;;;;;;13.90;8.00;;;;;;;14.26;78.50;100616.80;118332;1195;22227;-81
2021/09/01 01:42:57;;;;;;;11.40;8.00;;;;;;;14.24;78.71;100616.79;118286;1191;21815;-80
2021/09/01 01:45:38;;;;;;;8.40;7.40;;;;;;;14.25;78.67;100617.17;118387;1187;21769;-81
2021/09/01 01:48:09;;;;;;;10.10;7.50;;;;;;;14.27;78.62;100624.31;118281;1191;21815;-81
2021/09/01 01:50:39;;;;;;;11.70;8.00;;;;;;;14.25;78.55;100618.35;118369;1191;21802;-80
2021/09/01 01:53:09;;;;;;;9.50;6.70;;;;;;;14.24;78.56;100621.54;118332;1192;21797;-80
2021/09/01 01:55:38;;;;;;;9.90;7.80;;;;;;;14.24;78.59;100626.52;118254;1195;21885;-81
2021/09/01 01:58:07;;;;;;;9.10;7.30;;;;;;;14.26;78.39;100631.01;118293;1190;22239;-81
2021/09/01 02:00:37;;;;;;;11.60;8.10;;;;;;;14.22;78.46;100626.36;118342;1192;22068;-82
2021/09/01 02:03:06;;;;;;;11.00;7.40;;;;;;;14.21;78.49;100630.60;118330;1192;22621;-80
2021/09/01 02:05:35;;;;;;;9.00;8.00;;;;;;;14.20;78.48;100631.41;118257;1191;22113;-80
2021/09/01 02:08:05;;;;;;;8.50;7.40;;;;;;;14.20;78.52;100634.64;118349;1188;21797;-80
2021/09/01 02:10:34;;;;;;;9.90;7.40;;;;;;;14.19;78.54;100633.82;118412;1192;21768;-81
2021/09/01 02:13:03;;;;;;;11.60;8.50;;;;;;;14.22;78.60;100637.58;118103;1192;22280;-80
2021/09/01 02:15:32;;;;;;;11.50;7.70;;;;;;;14.22;78.50;100639.33;117702;1199;21751;-80
2021/09/01 02:18:01;;;;;;;9.30;7.50;;;;;;;14.20;78.35;100638.45;117526;1198;21828;-80
2021/09/01 02:20:30;;;;;;;9.50;8.40;;;;;;;14.18;78.34;100640.54;117716;1200;21865;-80
2021/09/01 02:22:59;;;;;;;9.90;8.30;;;;;;;14.18;78.27;100641.03;117364;1198;21812;-80
2021/09/01 02:25:29;;;;;;;11.50;8.40;;;;;;;14.12;78.31;100641.37;117847;1201;21793;-81
2021/09/01 02:27:58;;;;;;;9.90;7.70;;;;;;;14.13;78.43;100644.36;117718;1198;21874;-81
2021/09/01 02:30:27;;;;;;;12.70;7.90;;;;;;;14.10;78.38;100645.64;117374;1198;21860;-81
2021/09/01 02:32:56;;;;;;;11.80;8.10;;;;;;;14.09;78.43;100650.23;118205;1194;21841;-81
2021/09/01 02:35:25;;;;;;;10.70;8.00;;;;;;;14.10;78.41;100653.77;118369;1191;22525;-81
2021/09/01 02:37:54;;;;;;;9.40;7.20;;;;;;;14.07;78.38;100651.76;118390;1191;21778;-81
2021/09/01 02:40:24;;;;;;;9.70;7.00;;;;;;;14.05;78.36;100654.14;118388;1191;21696;-81
2021/09/01 02:42:53;;;;;;;9.20;7.40;;;;;;;14.02;78.41;100658.83;118159;1194;21849;-80
2021/09/01 02:45:22;;;;;;;11.20;9.50;;;;;;;14.01;78.51;100657.77;118237;1194;21798;-81
2021/09/01 02:47:51;;;;;;;10.00;7.30;;;;;;;13.98;78.46;100656.98;118077;1199;21822;-81
2021/09/01 02:50:21;;;;;;;10.30;7.90;;;;;;;13.96;78.55;100662.40;118072;1195;21859;-81
2021/09/01 02:52:50;;;;;;;10.40;7.70;;;;;;;13.95;78.59;100660.29;118022;1198;22107;-81
2021/09/01 02:55:19;;;;;;;11.30;8.70;;;;;;;13.96;78.80;100665.42;118180;1194;21861;-81
2021/09/01 02:57:48;;;;;;;10.90;8.20;;;;;;;14.02;78.91;100673.59;118165;1193;21894;-82
2021/09/01 03:00:18;;;;;;;12.20;8.30;;;;;;;13.99;78.71;100671.30;118007;1197;21823;-82
2021/09/01 03:02:47;;;;;;;9.20;7.70;;;;;;;13.95;78.77;100667.19;118225;1195;22200;-81
2021/09/01 03:05:16;;;;;;;9.30;7.70;;;;;;;13.94;78.74;100676.29;118199;1195;21824;-81
2021/09/01 03:07:45;;;;;;;10.30;8.60;;;;;;;13.90;78.85;100668.93;118298;1193;21799;-81
2021/09/01 03:10:15;;;;;;;10.20;9.20;;;;;;;13.90;78.87;100674.52;118396;1192;21840;-81
2021/09/01 03:12:43;;;;;;;13.30;8.80;;;;;;;13.89;78.87;100674.95;118289;1194;21809;-82
2021/09/01 03:15:12;;;;;;;14.20;9.00;;;;;;;13.89;78.95;100681.36;118332;1192;21792;-82
2021/09/01 03:17:42;;;;;;;9.40;7.30;;;;;;;13.90;79.01;100681.19;118190;1195;21811;-81
2021/09/01 03:20:11;;;;;;;11.70;8.00;;;;;;;13.90;78.94;100683.08;118319;1192;21775;-81
2021/09/01 03:22:40;;;;;;;12.00;8.40;;;;;;;13.90;78.81;100680.77;118385;1190;21807;-82
2021/09/01 03:25:10;;;;;;;11.70;8.40;;;;;;;13.88;78.73;100688.21;118154;1193;21857;-81
2021/09/01 03:27:39;;;;;;;10.20;7.80;;;;;;;13.84;78.76;100691.80;118047;1196;21901;-81
2021/09/01 03:30:09;;;;;;;12.20;8.50;;;;;;;13.85;78.76;100695.61;118083;1197;21752;-81
2021/09/01 03:32:38;;;;;;;15.20;8.90;;;;;;;13.82;78.90;100694.31;118056;1195;21840;-80
2021/09/01 03:35:08;;;;;;;10.40;7.80;;;;;;;13.85;78.92;100695.98;118169;1197;21853;-81
2021/09/01 03:37:37;;;;;;;9.30;7.90;;;;;;;13.85;78.99;100695.08;118187;1193;21843;-81
2021/09/01 03:40:07;;;;;;;12.70;9.40;;;;;;;13.85;78.83;100699.26;117953;1199;21810;-81
2021/09/01 03:42:37;;;;;;;9.20;8.30;;;;;;;13.83;78.84;100694.60;117892;1194;21866;-81
2021/09/01 03:45:07;;;;;;;10.10;8.60;;;;;;;13.81;78.87;100694.62;118155;1194;21828;-81
2021/09/01 03:47:37;;;;;;;14.30;8.00;;;;;;;13.81;78.92;100694.80;118161;1196;21872;-81
2021/09/01 03:50:10;;;;;;;11.60;8.80;;;;;;;13.81;78.88;100701.52;118115;1195;21833;-81
2021/09/01 03:52:39;;;;;;;9.90;7.70;;;;;;;13.84;78.79;100707.08;118043;1195;21800;-81
2021/09/01 03:55:09;;;;;;;10.60;8.00;;;;;;;13.85;78.87;100712.21;118153;1195;22281;-81
2021/09/01 03:57:39;;;;;;;11.00;7.70;;;;;;;13.83;78.75;100716.16;118153;1195;22226;-80
2021/09/01 04:00:09;;;;;;;10.20;8.00;;;;;;;13.81;78.79;100718.21;118351;1191;21805;-81
2021/09/01 04:02:41;;;;;;;12.00;8.10;;;;;;;13.80;78.89;100716.56;118286;1191;22136;-80
2021/09/01 04:05:11;;;;;;;9.00;7.80;;;;;;;13.79;78.97;100714.68;118270;1193;22129;-79
2021/09/01 04:07:40;;;;;;;8.70;7.20;;;;;;;13.80;78.97;100719.18;118384;1191;21778;-80
2021/09/01 04:10:09;;;;;;;12.60;7.90;;;;;;;13.80;78.82;100719.92;118286;1191;21754;-80
2021/09/01 04:12:38;;;;;;;11.10;7.60;;;;;;;13.79;78.87;100720.80;118223;1193;21737;-80
2021/09/01 04:15:08;;;;;;;9.20;7.30;;;;;;;13.79;78.98;100720.93;118127;1195;21802;-80
2021/09/01 04:17:37;;;;;;;9.30;7.30;;;;;;;13.80;78.93;100723.63;118190;1193;21822;-80
2021/09/01 04:20:07;;;;;;;10.00;8.00;;;;;;;13.83;79.00;100732.43;118223;1195;22258;-81
2021/09/01 04:22:36;;;;;;;10.90;8.20;;;;;;;13.82;78.87;100733.45;118140;1198;21721;-80
2021/09/01 04:25:07;;;;;;;10.70;7.80;;;;;;;13.81;78.92;100735.79;118039;1195;21860;-81
2021/09/01 04:27:36;;;;;;;11.40;8.20;;;;;;;13.79;78.99;100736.08;118243;1198;21729;-80
2021/09/01 04:30:06;;;;;;;10.70;8.10;;;;;;;13.83;79.08;100745.02;118068;1195;21844;-79
2021/09/01 04:32:35;;;;;;;13.20;7.70;;;;;;;13.84;79.02;100745.84;118239;1191;21818;-80
2021/09/01 04:35:04;;;;;;;10.20;8.20;;;;;;;13.84;79.00;100742.55;118319;1192;21803;-81
2021/09/01 04:37:33;;;;;;;13.00;9.20;;;;;;;13.88;78.99;100749.55;118199;1190;21791;-81
2021/09/01 04:40:03;;;;;;;13.00;9.30;;;;;;;13.88;79.02;100753.11;118257;1195;21933;-82
2021/09/01 04:42:32;;;;;;;13.50;9.30;;;;;;;13.91;79.05;100763.54;118274;1196;21814;-81
2021/09/01 04:45:01;;;;;;;9.90;7.90;;;;;;;13.95;78.98;100769.48;118363;1193;21824;-80
2021/09/01 04:47:30;;;;;;;9.50;8.30;;;;;;;13.93;78.83;100763.76;118179;1195;21862;-81
2021/09/01 04:49:59;;;;;;;11.20;8.10;;;;;;;13.93;78.84;100768.45;118314;1190;21795;-82
2021/09/01 04:52:28;;;;;;;10.00;8.40;;;;;;;13.94;78.81;100774.60;118306;1192;21801;-81
2021/09/01 04:54:59;;;;;;;10.20;9.10;;;;;;;13.95;78.88;100773.68;118455;1194;21807;-81
2021/09/01 04:57:28;;;;;;;9.30;7.70;;;;;;;13.95;78.76;100774.06;118400;1190;21809;-80
2021/09/01 04:59:58;;;;;;;9.60;6.90;;;;;;;13.94;78.66;100774.41;118283;1192;21787;-82
2021/09/01 05:02:27;;;;;;;14.60;8.50;;;;;;;13.95;78.72;100778.14;118416;1190;22178;-82
2021/09/01 05:04:56;;;;;;;10.30;7.50;;;;;;;13.99;78.60;100785.11;118306;1192;21822;-81
2021/09/01 05:07:25;;;;;;;9.80;7.70;;;;;;;14.01;78.72;100788.77;118319;1191;22090;-82
2021/09/01 05:09:58;;;;;;;8.80;7.00;;;;;;;14.03;78.81;100788.98;118313;1192;21836;-82
2021/09/01 05:12:27;;;;;;;8.70;6.60;;;;;;;14.06;78.71;100790.50;118102;1196;22263;-82
2021/09/01 05:14:57;;;;;;;13.50;7.70;;;;;;;14.11;78.77;100793.85;118209;1194;21843;-82
2021/09/01 05:17:27;;;;;;;8.90;6.70;;;;;;;14.14;78.72;100794.91;118011;1196;22247;-82
2021/09/01 05:19:56;;;;;;;9.50;7.30;;;;;;;14.18;78.56;100801.61;117352;1198;21886;-83
2021/09/01 05:22:31;;;;;;;12.80;7.80;;;;;;;14.18;78.50;100790.70;117362;1198;21845;-77
2021/09/01 05:25:11;;;;;;;8.30;7.50;;;;;;;14.24;78.34;100795.11;117637;1200;21875;-78
2021/09/01 05:27:44;;;;;;;10.90;7.70;;;;;;;14.24;78.40;100787.30;117789;1192;21875;-78
2021/09/01 05:30:16;;;;;;;10.30;7.40;;;;;;;14.26;78.37;100789.63;117590;1197;21843;-77
2021/09/01 05:32:49;;;;;;;8.50;7.20;;;;;;;14.29;78.24;100794.37;118131;1194;22298;-78
2021/09/01 05:35:18;;;;;;;11.90;7.20;;;;;;;14.34;78.19;100794.29;118140;1197;21808;-77
2021/09/01 05:37:48;;;;;;;11.00;7.30;;;;;;;14.38;78.02;100801.42;118165;1195;22212;-77
2021/09/01 05:40:16;;;;;;;7.60;6.50;;;;;;;14.39;77.84;100803.52;118361;1191;21812;-77
2021/09/01 05:42:46;;;;;;;8.50;7.70;;;;;;;14.43;77.77;100806.13;118274;1192;21772;-77
2021/09/01 05:45:18;;;;;;;9.90;7.20;;;;;;;14.42;77.69;100806.27;118342;1190;21799;-78
2021/09/01 05:47:49;;;;;;;9.70;7.30;;;;;;;14.45;77.52;100814.48;118402;1194;21809;-77
2021/09/01 05:50:19;;;;;;;10.40;7.20;;;;;;;14.42;77.43;100809.55;118367;1193;21786;-77
2021/09/01 05:52:49;;;;;;;10.70;7.40;;;;;;;14.41;77.51;100809.77;118325;1192;21795;-77
2021/09/01 05:55:18;;;;;;;10.00;6.90;;;;;;;14.47;77.52;100815.14;118397;1194;21826;-77
2021/09/01 05:57:51;;;;;;;13.90;6.00;;;;;;;14.49;77.42;100820.48;118323;1195;21841;-77
2021/09/01 06:00:20;;;;;;;10.40;7.00;;;;;;;14.49;77.38;100816.98;118288;1192;21822;-77
2021/09/01 06:03:16;;;;;;;9.10;7.20;;;;;;;14.53;77.51;100816.31;118361;1188;21852;-78
2021/09/01 06:05:46;;;;;;;16.80;7.90;;;;;;;14.60;77.51;100823.66;118324;1195;21796;-77
2021/09/01 06:08:21;;;;;;;12.50;7.30;;;;;;;14.64;77.36;100822.11;118325;1193;22225;-77
2021/09/01 06:10:57;;;;;;;9.80;6.60;;;;;;;14.66;77.22;100819.81;118293;1190;21843;-78
2021/09/01 06:13:26;;;;;;;11.60;7.00;;;;;;;14.69;76.99;100817.35;118366;1191;21795;-78
2021/09/01 06:15:56;;;;;;;8.40;7.10;;;;;;;14.73;76.94;100823.03;118371;1191;22120;-79
2021/09/01 06:18:26;;;;;;;10.80;7.30;;;;;;;14.74;76.85;100819.67;118322;1193;21777;-79
2021/09/01 06:20:55;;;;;;;10.20;7.00;;;;;;;14.81;76.73;100821.54;118312;1193;21795;-75
2021/09/01 06:23:24;;;;;;;9.50;7.60;;;;;;;14.82;76.56;100825.07;118319;1194;21803;-78
2021/09/01 06:25:53;;;;;;;11.50;8.70;;;;;;;14.83;76.20;100822.17;118302;1195;21751;-77
2021/09/01 06:28:22;;;;;;;8.70;6.90;;;;;;;14.85;76.18;100828.30;118310;1190;21864;-78
2021/09/01 06:30:51;;;;;;;11.60;7.40;;;;;;;14.83;75.99;100832.95;118303;1188;21782;-77
2021/09/01 06:33:20;;;;;;;8.60;6.50;;;;;;;14.80;75.76;100841.16;118368;1194;21755;-78
2021/09/01 06:35:49;;;;;;;10.50;7.10;;;;;;;14.80;76.06;100844.55;118366;1194;21740;-75
2021/09/01 06:38:18;;;;;;;10.80;7.70;;;;;;;14.84;76.38;100843.72;118401;1187;21835;-76
2021/09/01 06:40:47;;;;;;;11.30;8.00;;;;;;;14.93;76.47;100849.89;118293;1190;22117;-75
2021/09/01 06:43:16;;;;;;;12.60;7.90;;;;;;;14.96;76.34;100845.06;118117;1193;21821;-74
2021/09/01 06:45:46;;;;;;;9.60;7.20;;;;;;;15.02;76.19;100848.67;117990;1194;21842;-74
2021/09/01 06:48:16;;;;;;;9.40;7.20;;;;;;;15.10;76.24;100858.91;118127;1196;21893;-75
2021/09/01 06:50:45;;;;;;;10.60;7.20;;;;;;;15.11;75.85;100856.40;118119;1195;22283;-78
2021/09/01 06:53:14;;;;;;;13.10;8.00;;;;;;;15.11;75.58;100855.54;117971;1198;21844;-75
2021/09/01 06:55:43;;;;;;;12.80;8.80;;;;;;;15.12;75.47;100864.86;118070;1196;21849;-76
2021/09/01 06:58:15;;;;;;;8.30;7.10;;;;;;;15.16;75.46;100868.08;117992;1194;22164;-78
2021/09/01 07:00:44;;;;;;;12.70;7.20;;;;;;;15.17;75.47;100867.20;118188;1194;21848;-75
2021/09/01 07:03:14;;;;;;;10.80;7.10;;;;;;;15.18;75.32;100867.77;118333;1193;21774;-75
2021/09/01 07:05:43;;;;;;;7.80;5.90;;;;;;;15.23;75.23;100871.82;118366;1191;21828;-75
2021/09/01 07:08:17;;;;;;;12.50;8.10;;;;;;;15.24;75.19;100872.23;118384;1193;22239;-75
2021/09/01 07:10:46;;;;;;;7.70;6.30;;;;;;;15.25;74.94;100870.66;118225;1194;21756;-75
2021/09/01 07:13:16;;;;;;;10.10;7.00;;;;;;;15.26;74.92;100873.20;118109;1197;21750;-75
2021/09/01 07:15:45;;;;;;;7.70;5.90;;;;;;;15.31;74.93;100871.09;118131;1195;21781;-75
2021/09/01 07:18:15;;;;;;;8.80;6.90;;;;;;;15.35;74.80;100873.24;118015;1196;21841;-76
2021/09/01 07:20:44;;;;;;;15.60;7.20;;;;;;;15.42;74.72;100884.26;118062;1195;21859;-75
2021/09/01 07:23:16;;;;;;;12.00;7.00;;;;;;;15.42;74.39;100886.05;118133;1196;21768;-76
2021/09/01 07:25:45;;;;;;;11.00;7.00;;;;;;;15.43;74.34;100886.41;118131;1196;21821;-77
2021/09/01 07:28:14;;;;;;;8.10;6.60;;;;;;;15.46;74.13;100892.12;118190;1197;21842;-77
2021/09/01 07:30:44;;;;;;;17.20;7.70;;;;;;;15.50;74.13;100889.63;118153;1193;21850;-76
2021/09/01 07:33:13;;;;;;;14.60;7.30;;;;;;;15.57;74.18;100898.70;118328;1194;21763;-76
2021/09/01 07:35:42;;;;;;;10.80;6.50;;;;;;;15.57;74.18;100889.35;118288;1195;21901;-76
2021/09/01 07:38:12;;;;;;;8.60;6.70;;;;;;;15.66;74.20;100893.36;118384;1191;22116;-77
2021/09/01 07:40:41;;;;;;;14.40;9.80;;;;;;;15.75;74.24;100894.34;118369;1190;21999;-76
2021/09/01 07:43:10;;;;;;;12.60;8.70;;;;;;;15.84;74.32;100893.69;118301;1192;21707;-77
2021/09/01 07:45:42;;;;;;;14.20;8.90;;;;;;;15.92;74.17;100893.93;118362;1194;21806;-77
2021/09/01 07:48:16;;;;;;;11.10;8.10;;;;;;;16.03;73.91;100895.03;118371;1193;21834;-76
2021/09/01 07:50:45;;;;;;;11.20;7.20;;;;;;;16.15;73.81;100900.68;118309;1190;21818;-76
2021/09/01 07:53:15;;;;;;;12.70;6.60;;;;;;;16.28;73.18;100905.15;118382;1190;22216;-75
2021/09/01 07:55:44;;;;;;;10.50;7.80;;;;;;;16.30;72.70;100903.77;118307;1194;21820;-77
2021/09/01 07:58:13;;;;;;;11.10;8.50;;;;;;;16.36;72.60;100909.20;118332;1187;21804;-76
2021/09/01 08:00:42;;;;;;;15.30;13.50;;;;;;;16.49;72.71;100907.79;118287;1192;22106;-77
2021/09/01 08:03:11;;;;;;;9.70;6.30;;;;;;;16.63;72.32;100913.98;118295;1193;21772;-78
2021/09/01 08:05:41;;;;;;;8.30;6.10;;;;;;;16.70;71.22;100918.45;118341;1193;21826;-78
2021/09/01 08:08:09;;;;;;;9.60;6.00;;;;;;;16.73;70.73;100921.89;118208;1195;22255;-78
2021/09/01 08:10:38;;;;;;;9.90;7.20;;;;;;;16.76;70.91;100927.19;118407;1193;22281;-78
2021/09/01 08:13:07;;;;;;;8.90;6.00;;;;;;;16.83;70.75;100928.10;118322;1193;21800;-77
2021/09/01 08:15:36;;;;;;;8.60;7.20;;;;;;;16.86;70.35;100928.40;118185;1190;21750;-76
2021/09/01 08:18:06;;;;;;;7.90;5.50;;;;;;;16.91;70.22;100925.77;118324;1193;21812;-76
2021/09/01 08:20:34;;;;;;;10.40;6.80;;;;;;;16.98;69.81;100933.01;118290;1192;21782;-77
2021/09/01 08:23:03;;;;;;;7.60;5.90;;;;;;;16.99;69.66;100927.34;118411;1190;21792;-77
2021/09/01 08:25:32;;;;;;;8.00;5.90;;;;;;;17.04;69.55;100927.90;118339;1193;21826;-77
2021/09/01 08:28:01;;;;;;;12.90;6.90;;;;;;;17.13;69.65;100932.98;118297;1192;21797;-78
2021/09/01 08:30:30;;;;;;;9.30;6.50;;;;;;;17.28;69.77;100936.55;118330;1192;22097;-77
2021/09/01 08:32:59;;;;;;;10.60;6.10;;;;;;;17.43;69.27;100933.87;118347;1191;21775;-78
2021/09/01 08:35:28;;;;;;;9.50;7.00;;;;;;;17.57;68.66;100942.81;118237;1193;21807;-78
2021/09/01 08:37:57;;;;;;;9.60;5.90;;;;;;;17.70;68.52;100941.47;118276;1192;21782;-78
2021/09/01 08:40:26;;;;;;;6.40;5.40;;;;;;;17.83;67.95;100943.00;118255;1190;21779;-78
2021/09/01 08:42:55;;;;;;;13.60;8.60;;;;;;;17.89;67.07;100943.48;118309;1193;21830;-78
2021/09/01 08:45:25;;;;;;;8.60;7.70;;;;;;;18.04;67.82;100934.88;118234;1190;21825;-77
2021/09/01 08:47:55;;;;;;;11.50;9.40;;;;;;;18.42;68.05;100931.80;118215;1195;21766;-78
2021/09/01 08:50:28;;;;;;;8.70;5.00;;;;;;;18.75;66.00;100935.57;118331;1190;22033;-78
2021/09/01 08:52:57;;;;;;;7.00;4.80;;;;;;;18.82;64.39;100938.04;118278;1193;22052;-78
2021/09/01 08:55:28;;;;;;;9.50;5.60;;;;;;;18.94;64.41;100940.20;118261;1194;22299;-78
2021/09/01 08:57:57;;;;;;;5.50;4.70;;;;;;;19.23;64.81;100946.23;118242;1190;22263;-78
2021/09/01 09:00:26;;;;;;;7.50;5.00;;;;;;;19.61;63.94;100949.84;118170;1194;21816;-77
2021/09/01 09:02:58;;;;;;;11.50;9.70;;;;;;;19.83;62.19;100959.20;118324;1192;21817;-77
2021/09/01 09:05:37;;;;;;;9.50;5.50;;;;;;;19.82;60.83;100956.44;118373;1191;22150;-77
2021/09/01 09:08:11;;;;;;;7.50;5.20;;;;;;;19.76;60.11;100962.86;118351;1190;21795;-78
2021/09/01 09:10:46;;;;;;;7.60;4.80;;;;;;;19.61;60.08;100950.56;118317;1192;22120;-77
2021/09/01 09:13:26;;;;;;;7.10;6.40;;;;;;;19.59;60.49;100961.39;118236;1193;21839;-77
2021/09/01 09:16:07;;;;;;;8.20;5.30;;;;;;;19.61;60.74;100963.31;118284;1193;21796;-78
2021/09/01 09:18:38;;;;;;;10.00;5.00;;;;;;;19.59;60.23;100963.77;118265;1190;21776;-78
2021/09/01 09:21:21;;;;;;;5.90;5.00;;;;;;;19.54;60.18;100968.36;118008;1197;21823;-78
2021/09/01 09:23:51;;;;;;;6.80;4.60;;;;;;;19.51;60.06;100971.95;118067;1196;21812;-78
2021/09/01 09:26:29;;;;;;;6.00;4.80;;;;;;;19.56;60.77;100968.85;117317;1198;21783;-79
2021/09/01 09:29:12;;;;;;;7.80;4.90;;;;;;;19.79;60.46;100970.40;117210;1201;21975;-78
2021/09/01 09:32:05;;;;;;;6.70;4.90;;;;;;;19.91;59.73;100971.69;117190;1197;21776;-77
2021/09/01 09:34:42;;;;;;;7.70;4.70;;;;;;;19.97;58.80;100975.30;117159;1200;22293;-79
2021/09/01 09:37:14;;;;;;;7.20;5.10;;;;;;;19.94;58.48;100974.94;117269;1201;21897;-78
2021/09/01 09:39:46;;;;;;;9.50;4.70;;;;;;;19.91;58.75;100971.11;117658;1199;21827;-78
2021/09/01 09:42:37;;;;;;;8.90;4.10;;;;;;;19.88;58.25;100981.16;117989;1195;21844;-78
2021/09/01 09:45:25;;;;;;;9.00;4.50;;;;;;;19.83;58.67;100977.91;118158;1193;21819;-78
2021/09/01 09:47:56;;;;;;;6.60;4.90;;;;;;;19.88;59.02;100975.80;118151;1194;21832;-77
2021/09/01 09:50:25;;;;;;;8.30;4.40;;;;;;;19.92;58.81;100979.85;117960;1197;21812;-78
2021/09/01 09:52:54;;;;;;;7.90;4.60;;;;;;;20.04;59.33;100983.71;118179;1195;21708;-79
2021/09/01 09:55:24;;;;;;;6.30;4.60;;;;;;;20.31;58.99;100974.55;117965;1199;21861;-78
2021/09/01 09:58:02;;;;;;;6.80;5.10;;;;;;;20.40;57.41;100971.64;117602;1198;21843;-76
2021/09/01 10:00:31;;;;;;;9.80;4.60;;;;;;;20.40;56.61;100971.85;117277;1195;21862;-76
2021/09/01 10:03:02;;;;;;;8.50;4.50;;;;;;;20.36;56.30;100971.76;117616;1198;21813;-76
2021/09/01 10:05:32;;;;;;;5.60;4.50;;;;;;;20.32;56.17;100963.94;117932;1192;22238;-75
2021/09/01 10:08:02;;;;;;;6.30;4.50;;;;;;;20.32;56.42;100962.33;118086;1195;21722;-75
2021/09/01 10:10:31;;;;;;;6.40;4.10;;;;;;;20.54;56.95;100961.16;118191;1198;21861;-76
2021/09/01 10:13:01;;;;;;;9.50;4.70;;;;;;;20.66;55.28;100960.64;118035;1197;21841;-76
2021/09/01 10:15:35;;;;;;;6.00;4.60;;;;;;;20.64;54.65;100972.22;118171;1195;21836;-76
2021/09/01 10:18:08;;;;;;;5.80;4.40;;;;;;;20.64;54.83;100971.77;118332;1193;21782;-76
2021/09/01 10:20:42;;;;;;;5.70;4.30;;;;;;;20.67;55.14;100972.54;118360;1193;22216;-76
2021/09/01 10:23:11;;;;;;;9.30;6.60;;;;;;;20.71;54.83;100978.74;118394;1191;21753;-76
2021/09/01 10:25:50;;;;;;;7.20;5.10;;;;;;;20.64;54.26;100976.33;118342;1191;21823;-76
2021/09/01 10:28:22;;;;;;;6.90;4.60;;;;;;;20.51;54.15;100979.59;118396;1193;21766;-77
2021/09/01 10:31:27;;;;;;;8.30;4.50;;;;;;;20.36;54.18;100979.77;118441;1187;21795;-76
2021/09/01 10:34:18;;;;;;;5.00;3.80;;;;;;;20.15;54.62;100979.48;118342;1190;22111;-76
2021/09/01 10:36:50;;;;;;;;;;;;;;;20.21;56.26;100978.29;118361;1194;21775;-76
2021/09/01 10:39:45;;;;;;;6.60;4.40;;;;;;;20.44;56.00;100978.63;118355;1193;21856;-76
2021/09/01 10:42:35;;;;;;;8.60;4.80;;;;;;;20.44;54.64;100982.85;118153;1195;22123;-76
2021/09/01 10:45:15;;;;;;;5.40;4.00;;;;;;;20.32;53.90;100984.09;118115;1195;22292;-77
2021/09/01 10:48:05;;;;;;;7.40;4.30;;;;;;;20.24;54.27;100991.35;118159;1194;21818;-77
2021/09/01 10:50:44;;;;;;;5.40;3.70;;;;;;;20.31;55.12;100984.63;117783;1194;22244;-76
2021/09/01 10:53:29;;;;;;;6.80;3.80;;;;;;;20.61;55.89;100983.02;118021;1196;21845;-76
2021/09/01 10:56:13;;;;;;;6.10;4.00;;;;;;;20.82;54.42;100990.09;118072;1196;21779;-75
2021/09/01 10:58:47;;;;;;;5.00;3.90;;;;;;;20.96;53.69;100988.48;118069;1196;22326;-76
2021/09/01 11:01:22;;;;;;;5.50;4.30;;;;;;;20.91;52.66;100987.41;118160;1195;21707;-76
2021/09/01 11:04:01;;;;;;;8.60;4.80;;;;;;;20.91;52.84;100987.00;118176;1195;21860;-76
2021/09/01 11:06:38;;;;;;;9.80;5.20;;;;;;;20.99;53.08;100988.40;118054;1196;21810;-76
2021/09/01 11:09:14;;;;;;;6.70;4.20;;;;;;;21.05;52.50;100993.88;117914;1194;22223;-75
2021/09/01 11:11:58;;;;;;;5.40;4.40;;;;;;;20.93;51.94;100992.47;118167;1195;21856;-75
2021/09/01 11:14:46;;;;;;;5.40;3.70;;;;;;;20.71;52.12;100992.00;117996;1198;22229;-77
2021/09/01 11:17:27;;;;;;;6.20;4.40;;;;;;;20.61;52.98;101001.13;118012;1194;21793;-76
2021/09/01 11:20:00;;;;;;;6.40;4.50;;;;;;;20.59;53.60;100994.56;118345;1190;21803;-75
2021/09/01 11:22:38;;;;;;;7.10;3.90;;;;;;;20.66;53.85;100998.45;118332;1187;21781;-77
2021/09/01 11:25:12;;;;;;;6.80;4.00;;;;;;;20.62;53.22;101000.98;118447;1190;21765;-77
2021/09/01 11:27:55;;;;;;;9.30;5.50;;;;;;;20.61;53.26;101003.80;118355;1193;21815;-76
2021/09/01 11:30:34;;;;;;;7.00;4.00;;;;;;;20.65;53.08;101009.36;118355;1190;21863;-76
2021/09/01 11:33:03;;;;;;;7.60;4.20;;;;;;;20.68;52.69;101012.92;118163;1195;21860;-76
2021/09/01 11:35:37;;;;;;;9.90;3.80;;;;;;;20.66;52.28;101011.11;118189;1196;21900;-76